Time;durP1;ratioP1;P1;durP2;ratioP2;P2;SDS_P1;SDS_P2;PMS_P1;PMS_P2;Temp;Humidity;BMP_temperature;BMP_pressure;BME280_temperature;BME280_humidity;BME280_pressure;Samples;Min_cycle;Max_cycle;Signal;HPM_P1;HPM_P2
2022/10/22 00:00:55;;;;;;;27.67;12.93;;;11.70;99.90;;;;;;5066394;28;20037;-55
2022/10/22 00:03:21;;;;;;;24.10;13.77;;;11.70;99.90;;;;;;5051871;28;20037;-55
2022/10/22 00:05:47;;;;;;;25.58;13.00;;;11.60;99.90;;;;;;5044689;28;20052;-55
2022/10/22 00:08:13;;;;;;;23.90;14.50;;;11.90;99.90;;;;;;5046561;28;20118;-55
2022/10/22 00:10:39;;;;;;;35.85;15.48;;;12.60;99.90;;;;;;5046468;28;20167;-55
2022/10/22 00:13:05;;;;;;;24.05;14.02;;;11.60;99.90;;;;;;5045214;28;20053;-55
2022/10/22 00:15:31;;;;;;;21.95;13.38;;;11.70;99.90;;;;;;5046358;28;20401;-55
2022/10/22 00:17:56;;;;;;;20.70;13.20;;;11.50;99.90;;;;;;5049695;28;20087;-55
2022/10/22 00:20:22;;;;;;;21.73;12.18;;;11.40;99.90;;;;;;5049975;28;20079;-55
2022/10/22 00:22:48;;;;;;;26.42;14.50;;;11.40;99.90;;;;;;5049573;28;20051;-55
2022/10/22 00:25:14;;;;;;;23.52;13.35;;;11.30;99.90;;;;;;5049465;28;20036;-55
2022/10/22 00:27:40;;;;;;;28.85;13.50;;;11.30;99.90;;;;;;5049097;28;20503;-55
2022/10/22 00:30:06;;;;;;;23.20;12.90;;;11.30;99.90;;;;;;5049164;28;20082;-55
2022/10/22 00:32:32;;;;;;;27.73;12.85;;;11.20;99.90;;;;;;5049381;28;20495;-55
2022/10/22 00:34:57;;;;;;;29.65;13.57;;;11.20;99.90;;;;;;5065707;28;20032;-55
2022/10/22 00:37:23;;;;;;;27.60;13.88;;;11.20;99.90;;;;;;5069310;28;20055;-55
2022/10/22 00:39:48;;;;;;;28.30;14.82;;;11.20;99.90;;;;;;5053655;28;20071;-55
2022/10/22 00:42:20;;;;;;;23.75;13.05;;;11.20;99.90;;;;;;5049285;28;20035;-55
2022/10/22 00:45:06;;;;;;;29.40;14.07;;;11.30;99.90;;;;;;5048180;28;20129;-55
2022/10/22 00:47:51;;;;;;;25.75;13.13;;;11.30;99.90;;;;;;5047704;28;20045;-55
2022/10/22 00:50:26;;;;;;;27.58;14.68;;;11.30;99.90;;;;;;5049107;28;20416;-55
2022/10/22 00:52:54;;;;;;;32.15;14.82;;;11.30;99.90;;;;;;5049000;28;20041;-55
2022/10/22 00:55:21;;;;;;;37.25;15.57;;;11.30;99.90;;;;;;5049051;28;20045;-55
2022/10/22 00:57:47;;;;;;;23.55;13.65;;;11.30;99.90;;;;;;5047562;28;20634;-55
2022/10/22 01:00:13;;;;;;;25.02;14.07;;;11.50;99.90;;;;;;5049249;28;20047;-55
2022/10/22 01:02:39;;;;;;;26.50;14.45;;;11.30;99.90;;;;;;5049143;28;20518;-55
2022/10/22 01:05:05;;;;;;;30.77;16.38;;;11.40;99.90;;;;;;5049268;28;20029;-55
2022/10/22 01:07:37;;;;;;;40.60;16.88;;;11.30;99.90;;;;;;5049225;28;20036;-55
2022/10/22 01:10:14;;;;;;;28.00;14.75;;;12.20;99.90;;;;;;5047850;28;20392;-55
2022/10/22 01:13:16;;;;;;;36.03;16.50;;;11.30;99.90;;;;;;5048584;28;20037;-55
2022/10/22 01:16:07;;;;;;;23.73;14.20;;;11.30;99.90;;;;;;5049141;28;20049;-55
2022/10/22 01:18:39;;;;;;;27.25;14.73;;;11.30;99.90;;;;;;5048784;28;20369;-55
2022/10/22 01:21:25;;;;;;;30.88;15.23;;;11.30;99.90;;;;;;5048966;28;20033;-55
2022/10/22 01:24:31;;;;;;;32.55;16.02;;;11.30;99.90;;;;;;5049057;28;20052;-55
2022/10/22 01:27:23;;;;;;;28.55;15.07;;;11.80;99.90;;;;;;5064999;28;20625;-55
2022/10/22 01:30:11;;;;;;;29.42;15.63;;;11.30;99.90;;;;;;5048833;28;20063;-55
2022/10/22 01:32:44;;;;;;;28.00;15.00;;;11.30;99.90;;;;;;5048035;28;20053;-55
2022/10/22 01:35:13;;;;;;;37.08;16.45;;;11.20;99.90;;;;;;5048858;28;20634;-55
2022/10/22 01:37:54;;;;;;;30.60;15.90;;;11.70;99.90;;;;;;5046645;28;20048;-55
2022/10/22 01:40:21;;;;;;;30.30;15.75;;;11.20;99.90;;;;;;5048510;28;20044;-55
2022/10/22 01:42:56;;;;;;;31.05;16.95;;;11.20;99.90;;;;;;5048238;28;20037;-55
2022/10/22 01:45:22;;;;;;;27.48;14.80;;;11.40;99.90;;;;;;5048485;28;20360;-55
2022/10/22 01:48:05;;;;;;;27.33;15.48;;;11.30;99.90;;;;;;5048418;28;20094;-55
2022/10/22 01:51:02;;;;;;;22.58;14.25;;;11.30;99.90;;;;;;5047995;28;20095;-55
2022/10/22 01:53:46;;;;;;;29.08;16.08;;;11.30;99.90;;;;;;5047592;28;20498;-53
2022/10/22 01:56:42;;;;;;;26.60;15.98;;;11.40;99.90;;;;;;5046669;28;20052;-55
2022/10/22 01:59:23;;;;;;;27.77;15.73;;;11.40;99.90;;;;;;5048331;28;20080;-55
2022/10/22 02:02:04;;;;;;;37.28;17.33;;;11.40;99.90;;;;;;5047627;28;20124;-55
2022/10/22 02:04:48;;;;;;;34.93;17.00;;;11.40;99.90;;;;;;5048325;28;20051;-55
2022/10/22 02:07:18;;;;;;;30.20;16.30;;;11.40;99.90;;;;;;5048200;28;20041;-55
2022/10/22 02:09:44;;;;;;;42.45;17.60;;;11.40;99.90;;;;;;5046252;28;20049;-55
2022/10/22 02:12:11;;;;;;;24.75;14.77;;;11.40;99.90;;;;;;5047778;28;20048;-55
2022/10/22 02:14:41;;;;;;;34.75;16.88;;;11.40;99.90;;;;;;5048109;28;20045;-55
2022/10/22 02:17:15;;;;;;;23.88;15.48;;;11.40;99.90;;;;;;5047718;28;20048;-55
2022/10/22 02:19:53;;;;;;;28.08;15.50;;;11.40;99.90;;;;;;5045950;28;20053;-55
2022/10/22 02:22:19;;;;;;;26.85;15.07;;;11.40;99.90;;;;;;5047503;28;20389;-55
2022/10/22 02:24:46;;;;;;;26.73;15.18;;;11.50;99.90;;;;;;5045828;28;20083;-55
2022/10/22 02:27:17;;;;;;;35.17;16.30;;;11.40;99.90;;;;;;5047373;28;20052;-55
2022/10/22 02:30:08;;;;;;;36.40;16.27;;;11.50;99.90;;;;;;5047377;28;20082;-55
2022/10/22 02:33:13;;;;;;;30.75;16.23;;;11.50;99.90;;;;;;5047235;28;20522;-55
2022/10/22 02:35:40;;;;;;;26.00;14.75;;;11.70;99.90;;;;;;5026745;28;20427;-55
2022/10/22 02:38:08;;;;;;;34.28;17.15;;;11.40;99.90;;;;;;5027386;28;20057;-55
2022/10/22 02:40:34;;;;;;;25.35;14.52;;;11.40;99.90;;;;;;5026642;28;20038;-55
2022/10/22 02:43:02;;;;;;;22.20;14.15;;;11.40;99.90;;;;;;5027436;28;20034;-55
2022/10/22 02:45:28;;;;;;;32.10;16.05;;;11.40;99.90;;;;;;5028160;28;20049;-56
2022/10/22 02:47:54;;;;;;;24.50;14.27;;;11.40;99.90;;;;;;5027239;28;20052;-55
2022/10/22 02:50:19;;;;;;;30.55;15.93;;;11.40;99.90;;;;;;5027341;28;20041;-55
2022/10/22 02:52:45;;;;;;;31.95;15.40;;;11.60;99.90;;;;;;5026833;28;20041;-55
2022/10/22 02:55:11;;;;;;;28.38;14.32;;;11.20;99.90;;;;;;5026975;28;20045;-55
2022/10/22 02:57:36;;;;;;;28.23;13.98;;;11.20;99.90;;;;;;5026683;28;20052;-55
2022/10/22 03:00:04;;;;;;;37.38;15.27;;;11.30;99.90;;;;;;5027367;28;20542;-55
2022/10/22 03:02:30;;;;;;;28.63;14.30;;;11.30;99.90;;;;;;5058815;28;20038;-55
2022/10/22 03:04:56;;;;;;;24.33;14.98;;;11.30;99.90;;;;;;5026877;28;20099;-55
2022/10/22 03:07:22;;;;;;;27.90;14.55;;;11.40;99.90;;;;;;5026915;28;20041;-54
2022/10/22 03:09:48;;;;;;;26.35;14.07;;;11.20;99.90;;;;;;5026977;28;20103;-55
2022/10/22 03:12:13;;;;;;;32.00;14.40;;;11.20;99.90;;;;;;5026922;28;20045;-55
2022/10/22 03:14:39;;;;;;;30.63;14.57;;;11.30;99.90;;;;;;5026629;28;20127;-55
2022/10/22 03:17:05;;;;;;;29.52;14.30;;;11.10;99.90;;;;;;5026956;28;20091;-55
2022/10/22 03:19:30;;;;;;;35.75;17.00;;;11.40;99.90;;;;;;5026897;28;20045;-55
2022/10/22 03:22:00;;;;;;;23.65;14.20;;;11.10;99.90;;;;;;5026611;28;20045;-55
2022/10/22 03:24:29;;;;;;;29.30;15.38;;;11.20;99.90;;;;;;5026829;28;20051;-55
2022/10/22 03:26:56;;;;;;;27.55;14.77;;;11.20;99.90;;;;;;5026708;28;20056;-55
2022/10/22 03:29:24;;;;;;;47.22;18.60;;;11.20;99.90;;;;;;5026443;28;20076;-55
2022/10/22 03:31:50;;;;;;;31.70;16.00;;;11.10;99.90;;;;;;5026753;28;20124;-55
2022/10/22 03:34:16;;;;;;;42.40;17.35;;;11.10;99.90;;;;;;5047022;28;20052;-55
2022/10/22 03:36:42;;;;;;;24.55;14.68;;;11.10;99.90;;;;;;5066415;28;20045;-55
2022/10/22 03:39:10;;;;;;;26.92;14.95;;;11.10;99.90;;;;;;5066520;28;20084;-55
2022/10/22 03:41:36;;;;;;;27.65;15.45;;;11.50;99.90;;;;;;5066695;28;20045;-55
2022/10/22 03:44:03;;;;;;;28.48;15.02;;;11.30;99.90;;;;;;5066251;28;20040;-55
2022/10/22 03:46:29;;;;;;;30.00;16.70;;;11.20;99.90;;;;;;5066727;28;20051;-55
2022/10/22 03:48:54;;;;;;;35.92;17.25;;;11.30;99.90;;;;;;5066932;28;20044;-55
2022/10/22 03:51:20;;;;;;;29.88;16.27;;;11.30;99.90;;;;;;5069659;28;20067;-55
2022/10/22 03:53:46;;;;;;;27.63;17.02;;;12.50;99.90;;;;;;5069298;28;20121;-55
2022/10/22 03:56:12;;;;;;;37.80;18.05;;;11.20;99.90;;;;;;5070593;28;20629;-55
2022/10/22 03:58:39;;;;;;;31.33;16.90;;;11.60;99.90;;;;;;5070731;28;20049;-55
2022/10/22 04:01:07;;;;;;;33.03;17.15;;;11.40;99.90;;;;;;5070681;28;20055;-55
2022/10/22 04:03:32;;;;;;;33.88;17.33;;;11.30;99.90;;;;;;5070831;28;20567;-55
2022/10/22 04:06:07;;;;;;;35.97;18.63;;;11.30;99.90;;;;;;5070755;28;20127;-55
2022/10/22 04:08:33;;;;;;;33.10;17.65;;;11.30;99.90;;;;;;5069231;28;20052;-55
2022/10/22 04:10:59;;;;;;;33.40;18.38;;;11.30;99.90;;;;;;5070281;28;20112;-55
2022/10/22 04:13:24;;;;;;;31.98;18.02;;;11.20;99.90;;;;;;5070352;28;20123;-55
2022/10/22 04:15:50;;;;;;;30.50;16.77;;;11.30;99.90;;;;;;5069676;28;20044;-55
2022/10/22 04:18:20;;;;;;;31.30;17.83;;;11.30;99.90;;;;;;5069669;28;20491;-55
2022/10/22 04:20:47;;;;;;;38.28;18.48;;;11.40;99.90;;;;;;5070046;28;20157;-55
2022/10/22 04:23:13;;;;;;;37.72;19.23;;;11.60;99.90;;;;;;5069703;28;20490;-55
2022/10/22 04:25:39;;;;;;;37.92;18.60;;;11.20;99.90;;;;;;5069536;28;20033;-54
2022/10/22 04:28:08;;;;;;;46.45;18.48;;;11.20;99.90;;;;;;5069513;28;20037;-55
2022/10/22 04:30:35;;;;;;;32.22;16.95;;;12.00;99.90;;;;;;5069334;28;20060;-54
2022/10/22 04:33:01;;;;;;;27.77;16.50;;;11.10;99.90;;;;;;5069654;28;20086;-55
2022/10/22 04:35:27;;;;;;;32.97;16.80;;;12.10;99.90;;;;;;5029843;28;20082;-55
2022/10/22 04:37:54;;;;;;;33.03;16.00;;;11.20;99.90;;;;;;5029659;28;20081;-55
2022/10/22 04:40:20;;;;;;;35.80;18.83;;;11.20;99.90;;;;;;5029825;28;20477;-55
2022/10/22 04:42:45;;;;;;;36.53;18.92;;;11.30;99.90;;;;;;5061718;28;20056;-55
2022/10/22 04:45:11;;;;;;;26.10;15.73;;;11.10;99.90;;;;;;5029691;28;20080;-55
2022/10/22 04:47:37;;;;;;;40.38;18.38;;;11.20;99.90;;;;;;5029575;28;20096;-55
2022/10/22 04:50:03;;;;;;;36.78;17.55;;;11.40;99.90;;;;;;5061619;28;20045;-55
2022/10/22 04:52:30;;;;;;;30.75;17.33;;;11.10;99.90;;;;;;5029680;28;20117;-55
2022/10/22 04:54:55;;;;;;;31.40;18.63;;;11.10;99.90;;;;;;5029211;28;20439;-55
2022/10/22 04:57:21;;;;;;;36.05;16.45;;;11.10;99.90;;;;;;5030107;28;20045;-55
2022/10/22 04:59:47;;;;;;;27.70;17.35;;;11.10;99.90;;;;;;5029979;28;20053;-55
2022/10/22 05:02:12;;;;;;;35.00;18.23;;;11.10;99.90;;;;;;5029161;28;20045;-55
2022/10/22 05:04:38;;;;;;;37.40;19.08;;;11.10;99.90;;;;;;5030329;28;20435;-54
2022/10/22 05:07:04;;;;;;;41.53;17.45;;;11.30;99.90;;;;;;5030114;28;20432;-55
2022/10/22 05:09:29;;;;;;;39.35;19.02;;;11.20;99.90;;;;;;5028226;28;20508;-55
2022/10/22 05:11:55;;;;;;;35.38;18.85;;;11.20;99.90;;;;;;5029531;28;20107;-54
2022/10/22 05:14:23;;;;;;;37.85;18.10;;;11.30;99.90;;;;;;5029579;28;20048;-55
2022/10/22 05:16:49;;;;;;;43.72;20.00;;;11.20;99.90;;;;;;5029355;28;20037;-55
2022/10/22 05:19:24;;;;;;;35.40;19.83;;;11.40;99.90;;;;;;5029207;28;20049;-55
2022/10/22 05:21:51;;;;;;;40.42;20.38;;;11.30;99.90;;;;;;5029344;28;20405;-55
2022/10/22 05:24:17;;;;;;;34.40;18.75;;;11.30;99.90;;;;;;5029197;28;20049;-55
2022/10/22 05:26:43;;;;;;;38.40;18.85;;;11.30;99.90;;;;;;5028886;28;20037;-55
2022/10/22 05:29:09;;;;;;;32.03;17.77;;;12.00;99.90;;;;;;5028860;28;20503;-55
2022/10/22 05:31:35;;;;;;;33.85;18.05;;;12.20;99.90;;;;;;5029353;28;20459;-54
2022/10/22 05:34:01;;;;;;;53.75;21.65;;;11.30;99.90;;;;;;5043691;28;20037;-55
2022/10/22 05:36:27;;;;;;;25.00;15.35;;;11.30;99.90;;;;;;5068409;28;20400;-55
2022/10/22 05:38:53;;;;;;;30.52;17.63;;;11.20;99.90;;;;;;5068484;28;20629;-55
2022/10/22 05:41:23;;;;;;;35.33;18.65;;;11.60;99.90;;;;;;5068310;28;20589;-55
2022/10/22 05:43:50;;;;;;;30.05;17.13;;;11.70;99.90;;;;;;5068641;28;20119;-55
2022/10/22 05:46:21;;;;;;;38.17;18.20;;;12.00;99.90;;;;;;5068154;28;20041;-55
2022/10/22 05:48:50;;;;;;;38.97;18.40;;;11.20;99.90;;;;;;5068188;28;20052;-55
2022/10/22 05:51:17;;;;;;;34.05;17.90;;;11.50;99.90;;;;;;5067804;28;20132;-55
2022/10/22 05:53:43;;;;;;;32.38;16.33;;;11.20;99.90;;;;;;5068174;28;20051;-54
2022/10/22 05:56:14;;;;;;;32.38;15.95;;;11.50;99.90;;;;;;5067932;28;20474;-54
2022/10/22 05:58:40;;;;;;;48.27;20.23;;;11.30;99.90;;;;;;5068165;28;20040;-55
2022/10/22 06:01:12;;;;;;;44.65;19.10;;;11.20;99.90;;;;;;5067928;28;20631;-55
2022/10/22 06:03:39;;;;;;;28.83;16.50;;;11.30;99.90;;;;;;5068406;28;20036;-55
2022/10/22 06:06:19;;;;;;;31.27;17.48;;;11.30;99.90;;;;;;5067977;28;20396;-55
2022/10/22 06:08:49;;;;;;;32.47;16.95;;;11.30;99.90;;;;;;5068358;28;20518;-55
2022/10/22 06:11:17;;;;;;;52.17;19.83;;;11.30;99.90;;;;;;5068147;28;20059;-55
2022/10/22 06:13:47;;;;;;;27.13;15.80;;;11.30;99.90;;;;;;5068443;28;20048;-55
2022/10/22 06:16:13;;;;;;;32.38;16.33;;;11.60;99.90;;;;;;5068079;28;20051;-55
2022/10/22 06:18:39;;;;;;;34.53;17.42;;;11.40;99.90;;;;;;5068110;28;20506;-55
2022/10/22 06:21:11;;;;;;;32.15;17.45;;;11.40;99.90;;;;;;5068114;28;20040;-55
2022/10/22 06:23:38;;;;;;;36.08;19.23;;;12.00;99.90;;;;;;5068032;28;20621;-55
2022/10/22 06:26:05;;;;;;;26.52;15.40;;;11.40;99.90;;;;;;5067545;28;20032;-55
2022/10/22 06:28:31;;;;;;;31.33;17.13;;;11.40;99.90;;;;;;5067570;28;20051;-55
2022/10/22 06:31:01;;;;;;;30.08;16.73;;;11.50;99.90;;;;;;5067374;28;20052;-55
2022/10/22 06:33:28;;;;;;;35.50;16.00;;;11.60;99.90;;;;;;5062782;28;20137;-55
2022/10/22 06:35:54;;;;;;;26.48;16.00;;;11.60;99.90;;;;;;5047593;28;20041;-55
2022/10/22 06:38:20;;;;;;;28.38;16.95;;;11.60;99.90;;;;;;5047665;28;20033;-55
2022/10/22 06:40:45;;;;;;;29.75;16.42;;;11.60;99.90;;;;;;5046062;28;20087;-55
2022/10/22 06:43:12;;;;;;;32.90;18.17;;;11.70;99.90;;;;;;5047137;28;20045;-55
2022/10/22 06:45:38;;;;;;;28.25;15.48;;;11.70;99.90;;;;;;5047232;28;20102;-55
2022/10/22 06:48:04;;;;;;;28.30;16.67;;;12.20;99.90;;;;;;5047053;28;20496;-55
2022/10/22 06:50:30;;;;;;;38.10;16.92;;;11.80;99.90;;;;;;5047181;28;20052;-55
2022/10/22 06:52:56;;;;;;;31.17;15.73;;;11.80;99.90;;;;;;5046994;28;20102;-54
2022/10/22 06:55:22;;;;;;;30.15;15.65;;;11.90;99.90;;;;;;5045309;28;20060;-55
2022/10/22 06:57:47;;;;;;;27.92;15.25;;;11.90;99.90;;;;;;5046580;28;20041;-55
2022/10/22 07:00:13;;;;;;;27.38;16.63;;;11.80;99.90;;;;;;5046495;28;20053;-55
2022/10/22 07:02:39;;;;;;;33.65;15.95;;;11.90;99.90;;;;;;5046884;28;20090;-55
2022/10/22 07:05:05;;;;;;;24.77;15.27;;;11.90;99.90;;;;;;5046834;28;20037;-55
2022/10/22 07:07:31;;;;;;;28.73;15.43;;;11.90;99.90;;;;;;5046989;28;20400;-54
2022/10/22 07:09:56;;;;;;;29.55;15.27;;;11.90;99.90;;;;;;5046522;28;20049;-55
2022/10/22 07:12:22;;;;;;;24.10;15.10;;;12.00;99.90;;;;;;5048741;28;20067;-55
2022/10/22 07:14:48;;;;;;;31.23;16.27;;;12.00;99.90;;;;;;5052113;28;20052;-55
2022/10/22 07:17:14;;;;;;;26.40;14.80;;;12.20;99.90;;;;;;5050723;28;20090;-55
2022/10/22 07:19:40;;;;;;;31.27;15.77;;;12.60;99.90;;;;;;5046313;28;20087;-55
2022/10/22 07:22:05;;;;;;;25.40;15.25;;;12.60;99.90;;;;;;5046200;28;20069;-55
2022/10/22 07:24:31;;;;;;;24.13;13.82;;;12.10;99.90;;;;;;5045474;28;20037;-55
2022/10/22 07:26:57;;;;;;;25.80;14.25;;;12.50;99.90;;;;;;5045644;28;20161;-55
2022/10/22 07:29:23;;;;;;;31.13;15.80;;;12.50;99.90;;;;;;5045631;28;20102;-55
2022/10/22 07:31:48;;;;;;;31.77;15.45;;;12.50;99.90;;;;;;5045830;28;20532;-55
2022/10/22 07:34:14;;;;;;;26.05;14.68;;;12.60;99.90;;;;;;5046812;28;20041;-55
2022/10/22 07:36:40;;;;;;;20.15;12.60;;;12.50;99.90;;;;;;5046020;28;20037;-55
2022/10/22 07:39:06;;;;;;;22.35;13.32;;;12.80;99.90;;;;;;5046029;28;20060;-56
2022/10/22 07:41:31;;;;;;;24.52;13.73;;;12.70;99.90;;;;;;5045740;28;20045;-56
2022/10/22 07:43:57;;;;;;;22.48;12.48;;;12.80;99.90;;;;;;5045515;28;20391;-56
2022/10/22 07:46:24;;;;;;;20.00;11.15;;;12.80;99.90;;;;;;5045834;28;20111;-55
2022/10/22 07:48:50;;;;;;;21.50;12.65;;;12.90;99.90;;;;;;5045476;28;20103;-55
2022/10/22 07:51:15;;;;;;;21.63;12.40;;;13.00;99.90;;;;;;5045389;28;20474;-55
2022/10/22 07:53:41;;;;;;;18.67;10.82;;;13.00;99.90;;;;;;5044722;28;20041;-55
2022/10/22 07:56:07;;;;;;;17.02;11.90;;;13.10;99.90;;;;;;5044834;28;20032;-55
2022/10/22 07:58:33;;;;;;;21.90;10.80;;;13.20;99.90;;;;;;5045676;28;20132;-55
2022/10/22 08:01:00;;;;;;;23.80;11.90;;;13.20;99.90;;;;;;5046023;28;20423;-55
2022/10/22 08:03:27;;;;;;;20.90;11.75;;;13.20;99.90;;;;;;5045340;28;20040;-55
2022/10/22 08:05:53;;;;;;;22.25;11.93;;;13.30;99.90;;;;;;5077893;28;20124;-55
2022/10/22 08:08:19;;;;;;;18.23;10.45;;;13.30;99.90;;;;;;5045588;28;20407;-55
2022/10/22 08:10:47;;;;;;;20.65;10.30;;;13.30;99.90;;;;;;5046264;28;20049;-56
2022/10/22 08:13:13;;;;;;;18.20;10.73;;;13.40;99.90;;;;;;5046336;28;20636;-56
2022/10/22 08:15:39;;;;;;;23.73;10.23;;;13.40;99.90;;;;;;5046281;28;20052;-56
2022/10/22 08:18:04;;;;;;;14.48;8.80;;;13.40;99.90;;;;;;5044933;28;20048;-56
2022/10/22 08:20:30;;;;;;;17.83;9.82;;;13.80;99.90;;;;;;5045863;28;20404;-56
2022/10/22 08:22:56;;;;;;;17.77;9.73;;;13.40;99.90;;;;;;5045992;28;20090;-56
2022/10/22 08:25:22;;;;;;;14.13;8.00;;;13.50;99.90;;;;;;5045034;28;20120;-56
2022/10/22 08:27:48;;;;;;;14.95;8.23;;;13.50;99.90;;;;;;5046045;28;20140;-56
2022/10/22 08:30:14;;;;;;;17.67;9.35;;;13.60;99.90;;;;;;5046159;28;20084;-56
2022/10/22 08:32:40;;;;;;;16.70;8.73;;;14.00;99.90;;;;;;5046168;28;20037;-56
2022/10/22 08:35:06;;;;;;;13.60;7.60;;;13.70;99.90;;;;;;5063635;28;20048;-56
2022/10/22 08:37:32;;;;;;;17.20;8.40;;;13.80;99.90;;;;;;5066517;28;20066;-56
2022/10/22 08:39:57;;;;;;;14.32;7.28;;;13.80;99.90;;;;;;5060986;28;20049;-56
2022/10/22 08:43:03;;;;;;;17.42;8.20;;;14.00;99.90;;;;;;5057156;28;20399;-56
2022/10/22 08:45:42;;;;;;;14.32;7.03;;;14.10;99.90;;;;;;5069809;28;20056;-56
2022/10/22 08:48:44;;;;;;;18.13;9.60;;;14.40;99.90;;;;;;5070206;28;20048;-56
2022/10/22 08:51:17;;;;;;;13.00;7.25;;;14.40;99.90;;;;;;5070276;28;20051;-56
2022/10/22 08:53:59;;;;;;;16.45;7.22;;;14.40;99.90;;;;;;5069787;28;20176;-55
2022/10/22 08:56:25;;;;;;;11.50;6.20;;;14.40;99.90;;;;;;5069479;28;20056;-56
2022/10/22 08:59:09;;;;;;;14.32;6.93;;;14.50;99.90;;;;;;5069670;28;20044;-56
2022/10/22 09:01:38;;;;;;;11.13;5.97;;;14.60;99.90;;;;;;5058118;28;20053;-56
2022/10/22 09:04:27;;;;;;;16.02;6.57;;;14.60;99.90;;;;;;5049488;28;20477;-56
2022/10/22 09:06:56;;;;;;;15.55;7.00;;;14.70;99.90;;;;;;5049586;28;20051;-55
2022/10/22 09:09:26;;;;;;;9.68;5.50;;;14.80;99.90;;;;;;5049000;28;20056;-56
2022/10/22 09:11:56;;;;;;;14.60;6.63;;;14.90;99.90;;;;;;5049483;28;20052;-55
2022/10/22 09:14:24;;;;;;;8.20;5.63;;;15.00;99.90;;;;;;5048386;28;20106;-56
2022/10/22 09:17:12;;;;;;;12.30;5.95;;;16.50;99.90;;;;;;5048989;28;20459;-56
2022/10/22 09:19:53;;;;;;;12.38;5.22;;;15.00;99.90;;;;;;5046508;28;20408;-56
2022/10/22 09:22:33;;;;;;;12.65;5.15;;;15.10;99.90;;;;;;5046956;28;20048;-56
2022/10/22 09:25:18;;;;;;;11.25;5.10;;;15.10;99.90;;;;;;5048250;28;20507;-56
2022/10/22 09:27:43;;;;;;;12.18;3.67;;;15.20;99.90;;;;;;5048549;28;20033;-56
2022/10/22 09:30:16;;;;;;;10.23;3.40;;;15.30;99.90;;;;;;5048322;28;20464;-56
2022/10/22 09:32:41;;;;;;;9.43;3.90;;;15.30;99.90;;;;;;5046682;28;20053;-56
2022/10/22 09:35:10;;;;;;;12.23;3.80;;;15.40;99.90;;;;;;5048985;28;20040;-56
2022/10/22 09:37:47;;;;;;;12.70;4.03;;;15.50;99.90;;;;;;5048198;28;20114;-55
2022/10/22 09:40:14;;;;;;;7.40;3.30;;;15.60;99.90;;;;;;5046940;28;20095;-56
2022/10/22 09:42:39;;;;;;;15.18;4.57;;;15.60;99.90;;;;;;5047405;28;20033;-55
2022/10/22 09:45:06;;;;;;;8.25;4.15;;;17.00;99.90;;;;;;5047777;28;20494;-55
2022/10/22 09:47:40;;;;;;;9.18;2.78;;;15.80;99.90;;;;;;5046512;28;20123;-55
2022/10/22 09:50:26;;;;;;;12.00;3.88;;;15.90;99.90;;;;;;5047158;28;20045;-55
2022/10/22 09:53:13;;;;;;;11.65;4.43;;;16.10;99.90;;;;;;5047022;28;20032;-55
2022/10/22 09:55:43;;;;;;;12.10;3.55;;;16.20;99.90;;;;;;5047506;28;20371;-55
2022/10/22 09:58:13;;;;;;;11.35;3.90;;;16.30;99.90;;;;;;5047227;28;20040;-55
2022/10/22 10:00:42;;;;;;;12.18;3.40;;;16.40;99.90;;;;;;5047086;28;20124;-55
2022/10/22 10:03:15;;;;;;;13.07;2.50;;;16.40;99.90;;;;;;5047307;28;20040;-55
2022/10/22 10:05:42;;;;;;;6.60;2.88;;;16.40;99.90;;;;;;5044767;28;20037;-55
2022/10/22 10:08:13;;;;;;;7.60;2.42;;;16.40;99.90;;;;;;5047334;28;20488;-54
2022/10/22 10:10:58;;;;;;;9.85;3.30;;;16.40;99.90;;;;;;5047144;28;20072;-55
2022/10/22 10:13:45;;;;;;;8.15;2.97;;;16.40;99.90;;;;;;5045952;28;20100;-55
2022/10/22 10:16:37;;;;;;;12.23;3.20;;;16.40;99.90;;;;;;5047171;28;20375;-55
2022/10/22 10:19:32;;;;;;;7.28;2.70;;;16.40;99.90;;;;;;5045932;28;20128;-56
2022/10/22 10:22:16;;;;;;;7.00;2.33;;;16.40;99.90;;;;;;5045328;28;20049;-56
2022/10/22 10:25:14;;;;;;;7.50;2.50;;;16.40;99.90;;;;;;5046787;28;20041;-55
2022/10/22 10:27:52;;;;;;;10.35;3.05;;;16.50;99.90;;;;;;5046919;28;20075;-55
2022/10/22 10:30:22;;;;;;;11.57;3.00;;;16.50;99.90;;;;;;5046028;28;20053;-55
2022/10/22 10:33:13;;;;;;;8.27;2.30;;;16.50;99.90;;;;;;5046450;28;20037;-55
2022/10/22 10:35:41;;;;;;;10.85;3.38;;;16.50;99.90;;;;;;5046035;28;20119;-55
2022/10/22 10:38:25;;;;;;;8.25;3.08;;;16.50;99.90;;;;;;5046216;28;20594;-56
2022/10/22 10:40:58;;;;;;;7.70;2.92;;;16.60;99.90;;;;;;5044554;28;20135;-56
2022/10/22 10:44:00;;;;;;;12.15;3.60;;;16.60;99.90;;;;;;5045793;28;20421;-56
2022/10/22 10:46:37;;;;;;;7.32;2.65;;;16.60;99.90;;;;;;5047478;28;20193;-55
2022/10/22 10:49:09;;;;;;;7.68;2.50;;;16.60;99.90;;;;;;5045770;28;20045;-55
2022/10/22 10:51:48;;;;;;;7.85;3.28;;;16.60;99.90;;;;;;5043790;28;20064;-55
2022/10/22 10:54:34;;;;;;;7.90;3.15;;;16.60;99.90;;;;;;5044005;28;20041;-55
2022/10/22 10:57:18;;;;;;;12.85;3.50;;;16.60;99.90;;;;;;5046514;28;20045;-56
2022/10/22 11:00:08;;;;;;;11.68;3.38;;;16.70;99.90;;;;;;5045750;28;20041;-55
2022/10/22 11:02:43;;;;;;;8.07;2.83;;;16.80;99.90;;;;;;5046427;28;20242;-56
2022/10/22 11:05:33;;;;;;;9.85;3.38;;;16.80;99.90;;;;;;5046398;28;20056;-55
2022/10/22 11:08:19;;;;;;;11.50;3.85;;;16.80;99.90;;;;;;5043122;28;20080;-55
2022/10/22 11:10:52;;;;;;;7.45;3.13;;;16.80;99.90;;;;;;5045513;28;20037;-56
2022/10/22 11:13:27;;;;;;;10.75;3.25;;;16.80;99.90;;;;;;5044909;28;20036;-55
2022/10/22 11:16:30;;;;;;;7.45;3.28;;;16.80;99.90;;;;;;5043606;28;20037;-55
2022/10/22 11:19:37;;;;;;;10.00;4.50;;;16.70;99.90;;;;;;5045178;28;20056;-54
2022/10/22 11:22:28;;;;;;;7.53;3.17;;;16.70;99.90;;;;;;5042377;28;20437;-55
2022/10/22 11:25:12;;;;;;;5.47;2.60;;;16.70;99.90;;;;;;5044694;28;20158;-55
2022/10/22 11:28:04;;;;;;;8.73;2.63;;;16.60;99.90;;;;;;5046379;28;20033;-55
2022/10/22 11:30:36;;;;;;;7.65;3.10;;;16.60;99.90;;;;;;5077321;28;20057;-56
2022/10/22 11:33:06;;;;;;;7.50;3.50;;;16.50;99.90;;;;;;5047074;28;20056;-56
2022/10/22 11:35:39;;;;;;;9.27;3.33;;;16.50;99.90;;;;;;5067428;28;20147;-56
2022/10/22 11:38:08;;;;;;;10.00;3.40;;;16.40;99.90;;;;;;5067355;28;20055;-55
2022/10/22 11:40:42;;;;;;;10.05;2.80;;;16.30;99.90;;;;;;5049168;28;20037;-56
2022/10/22 11:43:29;;;;;;;9.13;3.47;;;16.30;99.90;;;;;;5046314;28;20045;-56
2022/10/22 11:46:27;;;;;;;13.27;3.92;;;16.20;99.90;;;;;;5044651;28;20041;-55
2022/10/22 11:49:17;;;;;;;9.73;3.17;;;16.20;99.90;;;;;;5046465;28;20500;-55
2022/10/22 11:51:45;;;;;;;7.28;3.47;;;16.20;99.90;;;;;;5046716;28;20051;-55
2022/10/22 11:54:42;;;;;;;6.03;2.97;;;16.10;99.90;;;;;;4348955;28;10000708;-55
2022/10/22 11:57:14;;;;;;;9.95;4.25;;;16.30;99.90;;;;;;5044760;28;20366;-55
2022/10/22 11:59:43;;;;;;;7.85;4.97;;;16.40;99.90;;;;;;5048446;28;20048;-53
2022/10/22 12:02:43;;;;;;;10.07;4.85;;;16.50;99.90;;;;;;5049668;28;20037;-53
2022/10/22 12:05:21;;;;;;;7.88;3.83;;;16.60;99.90;;;;;;5049272;28;20056;-52
2022/10/22 12:07:46;;;;;;;12.32;4.63;;;16.60;99.90;;;;;;5046500;28;20052;-55
2022/10/22 12:10:21;;;;;;;8.00;3.95;;;16.50;99.90;;;;;;5044143;28;20408;-55
2022/10/22 12:13:12;;;;;;;12.10;6.28;;;16.50;99.90;;;;;;5046005;28;20175;-56
2022/10/22 12:15:48;;;;;;;9.02;4.28;;;16.60;99.90;;;;;;5048061;28;20102;-56
2022/10/22 12:18:15;;;;;;;9.43;4.07;;;16.80;99.90;;;;;;5048603;28;20045;-55
2022/10/22 12:20:40;;;;;;;14.88;5.00;;;16.90;99.90;;;;;;5049212;28;20047;-55
2022/10/22 12:23:11;;;;;;;11.43;5.03;;;17.00;99.90;;;;;;5047477;28;20466;-56
2022/10/22 12:25:37;;;;;;;12.27;4.78;;;17.20;99.90;;;;;;5048125;28;20032;-55
2022/10/22 12:28:03;;;;;;;13.70;4.43;;;17.30;99.90;;;;;;5047539;28;20527;-55
2022/10/22 12:30:33;;;;;;;7.25;5.25;;;17.30;99.90;;;;;;5045009;28;20134;-55
2022/10/22 12:33:00;;;;;;;13.25;5.07;;;17.20;99.90;;;;;;5047765;28;20115;-55
2022/10/22 12:35:29;;;;;;;14.90;5.07;;;17.20;99.90;;;;;;5047995;28;20063;-55
2022/10/22 12:37:57;;;;;;;10.68;5.32;;;17.10;99.90;;;;;;5045922;28;20080;-55
2022/10/22 12:40:27;;;;;;;11.98;4.72;;;16.90;99.90;;;;;;5047998;28;20979;-55
2022/10/22 12:43:04;;;;;;;9.55;4.80;;;16.70;99.90;;;;;;5045609;28;20033;-55
2022/10/22 12:45:31;;;;;;;8.32;4.40;;;16.60;99.90;;;;;;5045388;28;20032;-56
2022/10/22 12:48:02;;;;;;;8.80;5.45;;;16.50;99.90;;;;;;5047149;28;20044;-56
2022/10/22 12:50:37;;;;;;;9.27;5.75;;;16.50;99.90;;;;;;5047168;28;20510;-56
2022/10/22 12:53:05;;;;;;;12.10;6.55;;;16.50;99.90;;;;;;5046921;28;20096;-55